sensor_id;sensor_type;location;lat;lon;timestamp;P1;durP1;ratioP1;P2;durP2;ratioP2
72935;SDS011;61085;48.804;9.228;2022-09-09T00:00:26;3.20;;;2.85;;
72935;SDS011;61085;48.804;9.228;2022-09-09T00:08:20;4.93;;;3.38;;
72935;SDS011;61085;48.804;9.228;2022-09-09T00:10:52;6.00;;;3.60;;
72935;SDS011;61085;48.804;9.228;2022-09-09T00:21:38;3.25;;;2.10;;
72935;SDS011;61085;48.804;9.228;2022-09-09T00:24:10;3.00;;;2.05;;
72935;SDS011;61085;48.804;9.228;2022-09-09T00:26:51;4.28;;;2.60;;
72935;SDS011;61085;48.804;9.228;2022-09-09T00:32:20;2.58;;;2.03;;
72935;SDS011;61085;48.804;9.228;2022-09-09T00:34:47;4.72;;;2.58;;
72935;SDS011;61085;48.804;9.228;2022-09-09T00:37:18;6.50;;;2.63;;
72935;SDS011;61085;48.804;9.228;2022-09-09T00:39:46;4.65;;;2.60;;
72935;SDS011;61085;48.804;9.228;2022-09-09T00:50:16;4.65;;;3.22;;
72935;SDS011;61085;48.804;9.228;2022-09-09T00:57:51;3.70;;;3.05;;
72935;SDS011;61085;48.804;9.228;2022-09-09T01:05:29;4.95;;;3.60;;
72935;SDS011;61085;48.804;9.228;2022-09-09T01:07:55;3.80;;;3.45;;
72935;SDS011;61085;48.804;9.228;2022-09-09T01:10:39;5.07;;;3.40;;
72935;SDS011;61085;48.804;9.228;2022-09-09T01:13:35;8.43;;;3.40;;
72935;SDS011;61085;48.804;9.228;2022-09-09T01:16:04;7.97;;;3.42;;
72935;SDS011;61085;48.804;9.228;2022-09-09T01:18:37;4.13;;;3.55;;
72935;SDS011;61085;48.804;9.228;2022-09-09T01:27:03;6.85;;;3.20;;
72935;SDS011;61085;48.804;9.228;2022-09-09T01:29:30;3.08;;;2.60;;
72935;SDS011;61085;48.804;9.228;2022-09-09T01:31:58;4.53;;;3.07;;
72935;SDS011;61085;48.804;9.228;2022-09-09T01:34:28;3.20;;;2.58;;
72935;SDS011;61085;48.804;9.228;2022-09-09T01:39:37;6.53;;;2.80;;
72935;SDS011;61085;48.804;9.228;2022-09-09T01:42:06;14.40;;;2.88;;
72935;SDS011;61085;48.804;9.228;2022-09-09T01:44:36;3.45;;;2.58;;
72935;SDS011;61085;48.804;9.228;2022-09-09T01:47:03;5.70;;;2.10;;
72935;SDS011;61085;48.804;9.228;2022-09-09T01:49:30;2.42;;;2.15;;
72935;SDS011;61085;48.804;9.228;2022-09-09T01:51:57;3.17;;;2.13;;
72935;SDS011;61085;48.804;9.228;2022-09-09T01:54:24;3.15;;;2.15;;
72935;SDS011;61085;48.804;9.228;2022-09-09T01:59:47;2.40;;;2.20;;
72935;SDS011;61085;48.804;9.228;2022-09-09T02:02:24;2.90;;;1.77;;
72935;SDS011;61085;48.804;9.228;2022-09-09T02:05:14;3.55;;;2.20;;
72935;SDS011;61085;48.804;9.228;2022-09-09T02:08:08;3.20;;;1.98;;
72935;SDS011;61085;48.804;9.228;2022-09-09T02:10:48;4.32;;;2.20;;
72935;SDS011;61085;48.804;9.228;2022-09-09T02:13:22;2.92;;;1.95;;
72935;SDS011;61085;48.804;9.228;2022-09-09T02:18:29;2.10;;;1.90;;
72935;SDS011;61085;48.804;9.228;2022-09-09T02:20:59;3.65;;;2.10;;
72935;SDS011;61085;48.804;9.228;2022-09-09T02:23:27;8.23;;;2.78;;
72935;SDS011;61085;48.804;9.228;2022-09-09T02:25:54;2.60;;;2.25;;
72935;SDS011;61085;48.804;9.228;2022-09-09T02:28:21;2.90;;;2.60;;
72935;SDS011;61085;48.804;9.228;2022-09-09T02:30:51;2.92;;;2.72;;
72935;SDS011;61085;48.804;9.228;2022-09-09T02:33:24;2.80;;;2.58;;
72935;SDS011;61085;48.804;9.228;2022-09-09T02:35:52;4.07;;;3.40;;
72935;SDS011;61085;48.804;9.228;2022-09-09T02:38:21;8.07;;;2.80;;
72935;SDS011;61085;48.804;9.228;2022-09-09T02:40:51;9.60;;;4.10;;
72935;SDS011;61085;48.804;9.228;2022-09-09T02:43:17;4.83;;;3.37;;
72935;SDS011;61085;48.804;9.228;2022-09-09T02:45:55;4.82;;;3.30;;
72935;SDS011;61085;48.804;9.228;2022-09-09T02:49:40;4.45;;;3.20;;
72935;SDS011;61085;48.804;9.228;2022-09-09T02:51:42;4.88;;;2.80;;
72935;SDS011;61085;48.804;9.228;2022-09-09T02:59:39;4.88;;;3.03;;
72935;SDS011;61085;48.804;9.228;2022-09-09T03:02:05;3.95;;;3.08;;
72935;SDS011;61085;48.804;9.228;2022-09-09T03:04:31;3.80;;;2.90;;
72935;SDS011;61085;48.804;9.228;2022-09-09T03:06:57;4.33;;;2.67;;
72935;SDS011;61085;48.804;9.228;2022-09-09T03:09:23;7.93;;;3.05;;
72935;SDS011;61085;48.804;9.228;2022-09-09T03:11:49;2.40;;;2.20;;
72935;SDS011;61085;48.804;9.228;2022-09-09T03:14:15;4.10;;;2.70;;
72935;SDS011;61085;48.804;9.228;2022-09-09T03:16:41;8.70;;;3.20;;
72935;SDS011;61085;48.804;9.228;2022-09-09T03:19:08;5.85;;;2.30;;
72935;SDS011;61085;48.804;9.228;2022-09-09T03:21:34;5.28;;;3.00;;
72935;SDS011;61085;48.804;9.228;2022-09-09T03:24:00;5.47;;;3.20;;
72935;SDS011;61085;48.804;9.228;2022-09-09T03:26:28;4.90;;;3.15;;
72935;SDS011;61085;48.804;9.228;2022-09-09T03:28:55;4.35;;;3.45;;
72935;SDS011;61085;48.804;9.228;2022-09-09T03:31:21;9.20;;;4.47;;
72935;SDS011;61085;48.804;9.228;2022-09-09T03:33:46;3.80;;;3.50;;
72935;SDS011;61085;48.804;9.228;2022-09-09T03:36:13;6.20;;;4.30;;
72935;SDS011;61085;48.804;9.228;2022-09-09T03:38:39;5.10;;;4.60;;
72935;SDS011;61085;48.804;9.228;2022-09-09T03:41:05;6.07;;;4.20;;
72935;SDS011;61085;48.804;9.228;2022-09-09T03:43:33;3.92;;;3.55;;
72935;SDS011;61085;48.804;9.228;2022-09-09T03:45:59;6.32;;;3.75;;
72935;SDS011;61085;48.804;9.228;2022-09-09T03:48:25;4.70;;;3.77;;
72935;SDS011;61085;48.804;9.228;2022-09-09T03:50:53;4.40;;;2.95;;
72935;SDS011;61085;48.804;9.228;2022-09-09T03:53:20;14.20;;;3.20;;
72935;SDS011;61085;48.804;9.228;2022-09-09T03:55:47;6.68;;;3.60;;
72935;SDS011;61085;48.804;9.228;2022-09-09T03:58:15;7.97;;;3.25;;
72935;SDS011;61085;48.804;9.228;2022-09-09T04:00:43;3.08;;;2.60;;
72935;SDS011;61085;48.804;9.228;2022-09-09T04:03:17;3.80;;;2.85;;
72935;SDS011;61085;48.804;9.228;2022-09-09T04:05:43;5.33;;;3.27;;
72935;SDS011;61085;48.804;9.228;2022-09-09T04:08:09;5.90;;;2.93;;
72935;SDS011;61085;48.804;9.228;2022-09-09T04:10:35;10.13;;;5.57;;
72935;SDS011;61085;48.804;9.228;2022-09-09T04:13:04;2.90;;;2.70;;
72935;SDS011;61085;48.804;9.228;2022-09-09T04:15:30;2.88;;;2.40;;
72935;SDS011;61085;48.804;9.228;2022-09-09T04:17:56;11.20;;;5.57;;
72935;SDS011;61085;48.804;9.228;2022-09-09T04:20:22;6.67;;;2.90;;
72935;SDS011;61085;48.804;9.228;2022-09-09T04:22:48;5.65;;;2.58;;
72935;SDS011;61085;48.804;9.228;2022-09-09T04:25:14;10.87;;;3.00;;
72935;SDS011;61085;48.804;9.228;2022-09-09T04:27:39;3.27;;;2.40;;
72935;SDS011;61085;48.804;9.228;2022-09-09T04:30:06;2.23;;;2.03;;
72935;SDS011;61085;48.804;9.228;2022-09-09T04:32:35;11.23;;;2.30;;
72935;SDS011;61085;48.804;9.228;2022-09-09T04:35:02;2.83;;;2.17;;
72935;SDS011;61085;48.804;9.228;2022-09-09T04:37:28;4.93;;;2.38;;
72935;SDS011;61085;48.804;9.228;2022-09-09T04:39:53;2.07;;;1.70;;
72935;SDS011;61085;48.804;9.228;2022-09-09T04:42:19;1.77;;;1.60;;
72935;SDS011;61085;48.804;9.228;2022-09-09T04:44:45;4.23;;;2.67;;
72935;SDS011;61085;48.804;9.228;2022-09-09T04:47:11;5.30;;;2.47;;
72935;SDS011;61085;48.804;9.228;2022-09-09T04:49:36;2.90;;;1.73;;
72935;SDS011;61085;48.804;9.228;2022-09-09T04:52:03;3.65;;;2.20;;
72935;SDS011;61085;48.804;9.228;2022-09-09T04:54:29;3.03;;;2.10;;
72935;SDS011;61085;48.804;9.228;2022-09-09T04:56:55;2.63;;;2.37;;
72935;SDS011;61085;48.804;9.228;2022-09-09T04:59:20;2.30;;;1.90;;
72935;SDS011;61085;48.804;9.228;2022-09-09T05:01:47;2.70;;;2.40;;
72935;SDS011;61085;48.804;9.228;2022-09-09T05:04:13;6.85;;;2.38;;
72935;SDS011;61085;48.804;9.228;2022-09-09T05:06:41;4.82;;;2.65;;
72935;SDS011;61085;48.804;9.228;2022-09-09T05:09:07;3.00;;;2.57;;
72935;SDS011;61085;48.804;9.228;2022-09-09T05:11:34;4.22;;;2.63;;
72935;SDS011;61085;48.804;9.228;2022-09-09T05:14:01;6.38;;;2.75;;
72935;SDS011;61085;48.804;9.228;2022-09-09T05:16:28;3.67;;;2.30;;
72935;SDS011;61085;48.804;9.228;2022-09-09T05:18:53;5.40;;;2.17;;
72935;SDS011;61085;48.804;9.228;2022-09-09T05:21:20;7.73;;;2.37;;
72935;SDS011;61085;48.804;9.228;2022-09-09T05:23:47;5.93;;;2.35;;
72935;SDS011;61085;48.804;9.228;2022-09-09T05:26:14;5.53;;;2.20;;
72935;SDS011;61085;48.804;9.228;2022-09-09T05:28:41;3.47;;;3.15;;
72935;SDS011;61085;48.804;9.228;2022-09-09T05:31:08;2.40;;;2.07;;
72935;SDS011;61085;48.804;9.228;2022-09-09T05:33:36;3.45;;;1.80;;
72935;SDS011;61085;48.804;9.228;2022-09-09T05:36:06;1.92;;;1.70;;
72935;SDS011;61085;48.804;9.228;2022-09-09T05:38:33;3.63;;;1.90;;
72935;SDS011;61085;48.804;9.228;2022-09-09T05:41:00;2.42;;;1.75;;
72935;SDS011;61085;48.804;9.228;2022-09-09T05:43:27;8.77;;;2.10;;
72935;SDS011;61085;48.804;9.228;2022-09-09T05:48:27;1.80;;;1.70;;
72935;SDS011;61085;48.804;9.228;2022-09-09T05:50:54;2.38;;;2.10;;
72935;SDS011;61085;48.804;9.228;2022-09-09T05:53:20;4.80;;;2.53;;
72935;SDS011;61085;48.804;9.228;2022-09-09T05:55:45;3.27;;;1.90;;
72935;SDS011;61085;48.804;9.228;2022-09-09T05:58:12;3.85;;;1.80;;
72935;SDS011;61085;48.804;9.228;2022-09-09T06:00:40;2.92;;;2.15;;
72935;SDS011;61085;48.804;9.228;2022-09-09T06:03:06;3.27;;;2.00;;
72935;SDS011;61085;48.804;9.228;2022-09-09T06:05:31;13.57;;;2.63;;
72935;SDS011;61085;48.804;9.228;2022-09-09T06:07:57;10.05;;;3.05;;
72935;SDS011;61085;48.804;9.228;2022-09-09T06:10:23;2.83;;;2.10;;
72935;SDS011;61085;48.804;9.228;2022-09-09T06:12:49;4.10;;;2.07;;
72935;SDS011;61085;48.804;9.228;2022-09-09T06:15:17;2.58;;;1.50;;
72935;SDS011;61085;48.804;9.228;2022-09-09T06:17:43;3.30;;;2.13;;
72935;SDS011;61085;48.804;9.228;2022-09-09T06:20:10;5.65;;;1.95;;
72935;SDS011;61085;48.804;9.228;2022-09-09T06:22:35;2.10;;;1.53;;
72935;SDS011;61085;48.804;9.228;2022-09-09T06:25:01;6.20;;;2.13;;
72935;SDS011;61085;48.804;9.228;2022-09-09T06:27:27;3.73;;;2.47;;
72935;SDS011;61085;48.804;9.228;2022-09-09T06:29:53;4.00;;;1.63;;
72935;SDS011;61085;48.804;9.228;2022-09-09T06:32:19;5.07;;;2.37;;
72935;SDS011;61085;48.804;9.228;2022-09-09T06:34:44;9.20;;;2.30;;
72935;SDS011;61085;48.804;9.228;2022-09-09T06:37:10;6.73;;;2.40;;
72935;SDS011;61085;48.804;9.228;2022-09-09T06:39:36;3.30;;;2.10;;
72935;SDS011;61085;48.804;9.228;2022-09-09T06:42:01;4.87;;;2.13;;
72935;SDS011;61085;48.804;9.228;2022-09-09T06:44:27;9.07;;;2.97;;
72935;SDS011;61085;48.804;9.228;2022-09-09T06:46:53;3.13;;;2.20;;
72935;SDS011;61085;48.804;9.228;2022-09-09T06:49:18;3.13;;;2.30;;
72935;SDS011;61085;48.804;9.228;2022-09-09T06:51:44;6.77;;;1.93;;
72935;SDS011;61085;48.804;9.228;2022-09-09T06:54:10;4.80;;;2.17;;
72935;SDS011;61085;48.804;9.228;2022-09-09T06:56:37;2.03;;;1.58;;
72935;SDS011;61085;48.804;9.228;2022-09-09T06:59:07;6.38;;;1.90;;
72935;SDS011;61085;48.804;9.228;2022-09-09T07:01:35;3.35;;;1.77;;
72935;SDS011;61085;48.804;9.228;2022-09-09T07:04:02;2.00;;;1.67;;
72935;SDS011;61085;48.804;9.228;2022-09-09T07:06:30;2.13;;;1.70;;
72935;SDS011;61085;48.804;9.228;2022-09-09T07:08:58;2.50;;;1.60;;
72935;SDS011;61085;48.804;9.228;2022-09-09T07:11:32;3.10;;;1.75;;
72935;SDS011;61085;48.804;9.228;2022-09-09T07:13:59;5.38;;;1.75;;
72935;SDS011;61085;48.804;9.228;2022-09-09T07:16:25;3.40;;;2.30;;
72935;SDS011;61085;48.804;9.228;2022-09-09T07:18:52;3.42;;;1.80;;
72935;SDS011;61085;48.804;9.228;2022-09-09T07:21:20;3.05;;;1.75;;
72935;SDS011;61085;48.804;9.228;2022-09-09T07:23:46;4.90;;;1.70;;
72935;SDS011;61085;48.804;9.228;2022-09-09T07:26:13;5.63;;;1.97;;
72935;SDS011;61085;48.804;9.228;2022-09-09T07:28:41;5.55;;;1.55;;
72935;SDS011;61085;48.804;9.228;2022-09-09T07:31:08;5.95;;;2.00;;
72935;SDS011;61085;48.804;9.228;2022-09-09T07:33:40;3.33;;;1.60;;
72935;SDS011;61085;48.804;9.228;2022-09-09T07:36:07;5.03;;;2.67;;
72935;SDS011;61085;48.804;9.228;2022-09-09T07:38:53;2.20;;;1.77;;
72935;SDS011;61085;48.804;9.228;2022-09-09T07:41:27;10.35;;;1.95;;
72935;SDS011;61085;48.804;9.228;2022-09-09T07:43:59;5.47;;;1.92;;
72935;SDS011;61085;48.804;9.228;2022-09-09T07:46:28;4.72;;;1.70;;
72935;SDS011;61085;48.804;9.228;2022-09-09T07:48:54;3.50;;;2.17;;
72935;SDS011;61085;48.804;9.228;2022-09-09T07:51:25;2.88;;;2.10;;
72935;SDS011;61085;48.804;9.228;2022-09-09T07:54:04;2.80;;;1.80;;
72935;SDS011;61085;48.804;9.228;2022-09-09T07:56:31;2.08;;;1.88;;
72935;SDS011;61085;48.804;9.228;2022-09-09T07:58:58;2.65;;;1.98;;
72935;SDS011;61085;48.804;9.228;2022-09-09T08:04:02;3.57;;;1.70;;
72935;SDS011;61085;48.804;9.228;2022-09-09T08:06:32;4.85;;;1.90;;
72935;SDS011;61085;48.804;9.228;2022-09-09T08:09:00;3.40;;;1.90;;
72935;SDS011;61085;48.804;9.228;2022-09-09T08:11:27;4.53;;;1.67;;
72935;SDS011;61085;48.804;9.228;2022-09-09T08:13:53;1.93;;;1.73;;
72935;SDS011;61085;48.804;9.228;2022-09-09T08:16:22;9.87;;;3.23;;
72935;SDS011;61085;48.804;9.228;2022-09-09T08:18:50;1.70;;;1.30;;
72935;SDS011;61085;48.804;9.228;2022-09-09T08:21:18;2.07;;;1.30;;
72935;SDS011;61085;48.804;9.228;2022-09-09T08:23:49;3.03;;;1.70;;
72935;SDS011;61085;48.804;9.228;2022-09-09T08:26:26;3.03;;;1.70;;
72935;SDS011;61085;48.804;9.228;2022-09-09T08:28:54;1.43;;;1.33;;
72935;SDS011;61085;48.804;9.228;2022-09-09T08:33:53;2.70;;;1.03;;
72935;SDS011;61085;48.804;9.228;2022-09-09T08:36:20;9.70;;;1.57;;
72935;SDS011;61085;48.804;9.228;2022-09-09T08:38:48;8.80;;;1.83;;
72935;SDS011;61085;48.804;9.228;2022-09-09T08:43:59;2.00;;;1.30;;
72935;SDS011;61085;48.804;9.228;2022-09-09T08:46:32;3.23;;;1.53;;
72935;SDS011;61085;48.804;9.228;2022-09-09T08:49:02;2.43;;;1.40;;
72935;SDS011;61085;48.804;9.228;2022-09-09T08:51:53;4.60;;;1.10;;
72935;SDS011;61085;48.804;9.228;2022-09-09T08:54:21;6.20;;;1.30;;
72935;SDS011;61085;48.804;9.228;2022-09-09T08:56:48;2.73;;;1.40;;
72935;SDS011;61085;48.804;9.228;2022-09-09T08:59:14;2.40;;;1.10;;
72935;SDS011;61085;48.804;9.228;2022-09-09T09:07:30;2.10;;;1.00;;
72935;SDS011;61085;48.804;9.228;2022-09-09T09:10:15;3.40;;;1.30;;
72935;SDS011;61085;48.804;9.228;2022-09-09T09:13:19;2.10;;;1.03;;
72935;SDS011;61085;48.804;9.228;2022-09-09T09:15:54;1.73;;;1.00;;
72935;SDS011;61085;48.804;9.228;2022-09-09T09:18:23;2.90;;;1.00;;
72935;SDS011;61085;48.804;9.228;2022-09-09T09:23:24;1.77;;;1.13;;
72935;SDS011;61085;48.804;9.228;2022-09-09T09:25:52;2.07;;;1.27;;
72935;SDS011;61085;48.804;9.228;2022-09-09T09:28:23;2.00;;;1.13;;
72935;SDS011;61085;48.804;9.228;2022-09-09T09:33:33;2.30;;;1.10;;
72935;SDS011;61085;48.804;9.228;2022-09-09T09:36:06;1.50;;;1.40;;
72935;SDS011;61085;48.804;9.228;2022-09-09T09:38:33;2.60;;;1.30;;
72935;SDS011;61085;48.804;9.228;2022-09-09T09:41:00;2.17;;;1.00;;
72935;SDS011;61085;48.804;9.228;2022-09-09T09:43:30;1.50;;;1.27;;
72935;SDS011;61085;48.804;9.228;2022-09-09T09:45:57;1.60;;;1.00;;
72935;SDS011;61085;48.804;9.228;2022-09-09T09:48:24;2.10;;;1.00;;
72935;SDS011;61085;48.804;9.228;2022-09-09T09:50:59;4.65;;;1.10;;
72935;SDS011;61085;48.804;9.228;2022-09-09T09:53:31;1.85;;;0.80;;
72935;SDS011;61085;48.804;9.228;2022-09-09T09:56:05;1.63;;;0.80;;
72935;SDS011;61085;48.804;9.228;2022-09-09T10:01:21;1.50;;;0.80;;
72935;SDS011;61085;48.804;9.228;2022-09-09T10:03:57;1.30;;;1.10;;
72935;SDS011;61085;48.804;9.228;2022-09-09T10:06:41;1.37;;;0.90;;
72935;SDS011;61085;48.804;9.228;2022-09-09T10:09:26;1.40;;;0.70;;
72935;SDS011;61085;48.804;9.228;2022-09-09T10:17:45;1.63;;;1.10;;
72935;SDS011;61085;48.804;9.228;2022-09-09T10:20:42;2.40;;;1.37;;
72935;SDS011;61085;48.804;9.228;2022-09-09T10:29:18;1.47;;;1.10;;
72935;SDS011;61085;48.804;9.228;2022-09-09T10:31:51;2.23;;;1.20;;
72935;SDS011;61085;48.804;9.228;2022-09-09T10:37:15;1.80;;;1.13;;
72935;SDS011;61085;48.804;9.228;2022-09-09T10:51:36;1.90;;;1.63;;
72935;SDS011;61085;48.804;9.228;2022-09-09T10:56:44;3.33;;;1.10;;
72935;SDS011;61085;48.804;9.228;2022-09-09T10:59:19;1.67;;;1.20;;
72935;SDS011;61085;48.804;9.228;2022-09-09T11:04:24;1.40;;;1.00;;
72935;SDS011;61085;48.804;9.228;2022-09-09T11:06:57;2.63;;;1.10;;
72935;SDS011;61085;48.804;9.228;2022-09-09T11:09:29;2.00;;;1.10;;
72935;SDS011;61085;48.804;9.228;2022-09-09T11:11:58;3.53;;;1.10;;
72935;SDS011;61085;48.804;9.228;2022-09-09T11:14:37;1.37;;;0.97;;
72935;SDS011;61085;48.804;9.228;2022-09-09T11:19:44;1.33;;;1.20;;
72935;SDS011;61085;48.804;9.228;2022-09-09T11:24:44;3.00;;;1.20;;
72935;SDS011;61085;48.804;9.228;2022-09-09T11:27:23;1.23;;;1.03;;
72935;SDS011;61085;48.804;9.228;2022-09-09T11:38:47;2.78;;;0.90;;
72935;SDS011;61085;48.804;9.228;2022-09-09T11:41:16;4.35;;;1.90;;
72935;SDS011;61085;48.804;9.228;2022-09-09T11:43:46;1.38;;;1.00;;
72935;SDS011;61085;48.804;9.228;2022-09-09T11:46:17;3.03;;;1.50;;
72935;SDS011;61085;48.804;9.228;2022-09-09T11:48:56;2.08;;;1.13;;
72935;SDS011;61085;48.804;9.228;2022-09-09T11:51:26;3.38;;;1.00;;
72935;SDS011;61085;48.804;9.228;2022-09-09T11:53:55;1.70;;;0.82;;
72935;SDS011;61085;48.804;9.228;2022-09-09T11:59:21;1.38;;;1.10;;
72935;SDS011;61085;48.804;9.228;2022-09-09T12:01:59;2.90;;;1.10;;
72935;SDS011;61085;48.804;9.228;2022-09-09T12:04:36;1.23;;;0.98;;
72935;SDS011;61085;48.804;9.228;2022-09-09T12:09:46;2.38;;;1.00;;
72935;SDS011;61085;48.804;9.228;2022-09-09T12:12:55;1.40;;;0.80;;
72935;SDS011;61085;48.804;9.228;2022-09-09T12:15:18;1.15;;;0.85;;
72935;SDS011;61085;48.804;9.228;2022-09-09T12:17:52;0.90;;;0.70;;
72935;SDS011;61085;48.804;9.228;2022-09-09T12:28:27;1.30;;;0.77;;
72935;SDS011;61085;48.804;9.228;2022-09-09T12:33:36;1.17;;;0.80;;
72935;SDS011;61085;48.804;9.228;2022-09-09T12:36:05;0.90;;;0.70;;
72935;SDS011;61085;48.804;9.228;2022-09-09T12:38:38;1.40;;;0.70;;
72935;SDS011;61085;48.804;9.228;2022-09-09T12:41:05;1.00;;;0.90;;
72935;SDS011;61085;48.804;9.228;2022-09-09T12:43:44;1.13;;;0.60;;
72935;SDS011;61085;48.804;9.228;2022-09-09T12:46:12;1.50;;;1.00;;
72935;SDS011;61085;48.804;9.228;2022-09-09T12:49:02;2.13;;;0.90;;
72935;SDS011;61085;48.804;9.228;2022-09-09T12:51:30;2.60;;;0.90;;
72935;SDS011;61085;48.804;9.228;2022-09-09T12:53:58;1.07;;;0.80;;
72935;SDS011;61085;48.804;9.228;2022-09-09T12:56:25;0.97;;;0.80;;
72935;SDS011;61085;48.804;9.228;2022-09-09T12:58:58;1.50;;;0.83;;
72935;SDS011;61085;48.804;9.228;2022-09-09T13:01:31;2.10;;;0.88;;
72935;SDS011;61085;48.804;9.228;2022-09-09T13:04:00;1.33;;;1.00;;
72935;SDS011;61085;48.804;9.228;2022-09-09T13:06:28;1.50;;;0.90;;
72935;SDS011;61085;48.804;9.228;2022-09-09T13:08:58;3.60;;;1.10;;
72935;SDS011;61085;48.804;9.228;2022-09-09T13:11:26;2.20;;;1.13;;
72935;SDS011;61085;48.804;9.228;2022-09-09T13:14:16;2.70;;;1.10;;
72935;SDS011;61085;48.804;9.228;2022-09-09T13:16:54;1.40;;;0.90;;
72935;SDS011;61085;48.804;9.228;2022-09-09T13:19:22;1.20;;;0.77;;
72935;SDS011;61085;48.804;9.228;2022-09-09T13:21:50;3.10;;;0.80;;
72935;SDS011;61085;48.804;9.228;2022-09-09T13:26:55;1.63;;;0.80;;
72935;SDS011;61085;48.804;9.228;2022-09-09T13:29:27;2.30;;;1.00;;
72935;SDS011;61085;48.804;9.228;2022-09-09T13:31:53;2.70;;;1.20;;
72935;SDS011;61085;48.804;9.228;2022-09-09T13:34:26;7.00;;;2.77;;
72935;SDS011;61085;48.804;9.228;2022-09-09T13:37:00;2.30;;;1.47;;
72935;SDS011;61085;48.804;9.228;2022-09-09T13:39:50;2.30;;;0.90;;
72935;SDS011;61085;48.804;9.228;2022-09-09T13:42:21;1.83;;;0.90;;
72935;SDS011;61085;48.804;9.228;2022-09-09T13:44:53;1.90;;;0.90;;
72935;SDS011;61085;48.804;9.228;2022-09-09T13:47:34;1.87;;;1.00;;
72935;SDS011;61085;48.804;9.228;2022-09-09T13:52:46;5.13;;;1.00;;
72935;SDS011;61085;48.804;9.228;2022-09-09T13:55:14;2.40;;;1.10;;
72935;SDS011;61085;48.804;9.228;2022-09-09T13:57:49;2.40;;;1.30;;
72935;SDS011;61085;48.804;9.228;2022-09-09T14:00:16;2.13;;;1.50;;
72935;SDS011;61085;48.804;9.228;2022-09-09T14:02:42;1.70;;;1.00;;
72935;SDS011;61085;48.804;9.228;2022-09-09T14:05:09;2.07;;;0.90;;
72935;SDS011;61085;48.804;9.228;2022-09-09T14:07:36;2.30;;;0.90;;
72935;SDS011;61085;48.804;9.228;2022-09-09T14:10:03;1.87;;;1.07;;
72935;SDS011;61085;48.804;9.228;2022-09-09T14:12:30;1.13;;;1.00;;
72935;SDS011;61085;48.804;9.228;2022-09-09T14:14:55;1.83;;;1.10;;
72935;SDS011;61085;48.804;9.228;2022-09-09T14:17:21;1.20;;;0.77;;
72935;SDS011;61085;48.804;9.228;2022-09-09T14:19:47;2.20;;;0.80;;
72935;SDS011;61085;48.804;9.228;2022-09-09T14:22:13;3.60;;;1.43;;
72935;SDS011;61085;48.804;9.228;2022-09-09T14:24:38;4.80;;;1.20;;
72935;SDS011;61085;48.804;9.228;2022-09-09T14:27:04;1.17;;;1.03;;
72935;SDS011;61085;48.804;9.228;2022-09-09T14:29:30;2.00;;;0.90;;
72935;SDS011;61085;48.804;9.228;2022-09-09T14:31:56;2.73;;;0.90;;
72935;SDS011;61085;48.804;9.228;2022-09-09T14:34:21;1.10;;;0.93;;
72935;SDS011;61085;48.804;9.228;2022-09-09T14:36:47;2.53;;;1.00;;
72935;SDS011;61085;48.804;9.228;2022-09-09T14:39:13;1.23;;;0.80;;
72935;SDS011;61085;48.804;9.228;2022-09-09T14:41:38;4.00;;;1.00;;
72935;SDS011;61085;48.804;9.228;2022-09-09T14:44:04;1.03;;;0.80;;
72935;SDS011;61085;48.804;9.228;2022-09-09T14:46:29;1.40;;;0.80;;
72935;SDS011;61085;48.804;9.228;2022-09-09T14:48:56;2.27;;;0.70;;
72935;SDS011;61085;48.804;9.228;2022-09-09T14:51:23;1.73;;;0.77;;
72935;SDS011;61085;48.804;9.228;2022-09-09T14:53:54;1.30;;;0.90;;
72935;SDS011;61085;48.804;9.228;2022-09-09T14:56:23;1.60;;;0.83;;
72935;SDS011;61085;48.804;9.228;2022-09-09T14:58:53;1.30;;;0.77;;
72935;SDS011;61085;48.804;9.228;2022-09-09T15:01:20;1.30;;;1.20;;
72935;SDS011;61085;48.804;9.228;2022-09-09T15:03:51;1.20;;;0.90;;
72935;SDS011;61085;48.804;9.228;2022-09-09T15:06:23;1.10;;;0.80;;
72935;SDS011;61085;48.804;9.228;2022-09-09T15:08:50;1.60;;;0.90;;
72935;SDS011;61085;48.804;9.228;2022-09-09T15:11:17;3.77;;;1.10;;
72935;SDS011;61085;48.804;9.228;2022-09-09T15:13:43;1.97;;;1.00;;
72935;SDS011;61085;48.804;9.228;2022-09-09T15:16:16;2.47;;;1.13;;
72935;SDS011;61085;48.804;9.228;2022-09-09T15:18:43;1.23;;;0.77;;
72935;SDS011;61085;48.804;9.228;2022-09-09T15:21:13;1.10;;;0.70;;
72935;SDS011;61085;48.804;9.228;2022-09-09T15:23:41;0.97;;;0.67;;
72935;SDS011;61085;48.804;9.228;2022-09-09T15:26:07;1.50;;;0.80;;
72935;SDS011;61085;48.804;9.228;2022-09-09T15:28:34;1.10;;;0.80;;
72935;SDS011;61085;48.804;9.228;2022-09-09T15:31:06;2.07;;;0.80;;
72935;SDS011;61085;48.804;9.228;2022-09-09T15:33:35;1.07;;;0.77;;
72935;SDS011;61085;48.804;9.228;2022-09-09T15:36:16;1.10;;;0.70;;
72935;SDS011;61085;48.804;9.228;2022-09-09T15:38:49;3.03;;;0.80;;
72935;SDS011;61085;48.804;9.228;2022-09-09T15:41:16;1.98;;;1.00;;
72935;SDS011;61085;48.804;9.228;2022-09-09T15:43:46;1.30;;;0.70;;
72935;SDS011;61085;48.804;9.228;2022-09-09T15:48:42;1.30;;;0.80;;
72935;SDS011;61085;48.804;9.228;2022-09-09T15:51:13;1.95;;;0.90;;
72935;SDS011;61085;48.804;9.228;2022-09-09T15:53:39;3.10;;;0.90;;
72935;SDS011;61085;48.804;9.228;2022-09-09T15:56:05;1.90;;;1.00;;
72935;SDS011;61085;48.804;9.228;2022-09-09T15:58:32;1.00;;;0.75;;
72935;SDS011;61085;48.804;9.228;2022-09-09T16:01:08;1.10;;;0.80;;
72935;SDS011;61085;48.804;9.228;2022-09-09T16:03:36;1.00;;;0.80;;
72935;SDS011;61085;48.804;9.228;2022-09-09T16:06:03;3.17;;;0.90;;
72935;SDS011;61085;48.804;9.228;2022-09-09T16:08:36;1.25;;;0.90;;
72935;SDS011;61085;48.804;9.228;2022-09-09T16:11:07;1.08;;;0.90;;
72935;SDS011;61085;48.804;9.228;2022-09-09T16:13:38;2.85;;;0.90;;
72935;SDS011;61085;48.804;9.228;2022-09-09T16:16:04;1.70;;;1.08;;
72935;SDS011;61085;48.804;9.228;2022-09-09T16:18:38;1.75;;;1.20;;
72935;SDS011;61085;48.804;9.228;2022-09-09T16:21:05;2.80;;;1.30;;
72935;SDS011;61085;48.804;9.228;2022-09-09T16:23:33;1.58;;;1.10;;
72935;SDS011;61085;48.804;9.228;2022-09-09T16:26:01;1.60;;;1.00;;
72935;SDS011;61085;48.804;9.228;2022-09-09T16:28:29;1.17;;;0.90;;
72935;SDS011;61085;48.804;9.228;2022-09-09T16:30:54;1.38;;;0.93;;
72935;SDS011;61085;48.804;9.228;2022-09-09T16:33:20;2.07;;;1.00;;
72935;SDS011;61085;48.804;9.228;2022-09-09T16:35:47;1.10;;;0.80;;
72935;SDS011;61085;48.804;9.228;2022-09-09T16:38:14;4.65;;;1.25;;
72935;SDS011;61085;48.804;9.228;2022-09-09T16:40:39;0.80;;;0.60;;
72935;SDS011;61085;48.804;9.228;2022-09-09T16:43:06;2.00;;;0.80;;
72935;SDS011;61085;48.804;9.228;2022-09-09T16:45:32;2.35;;;0.85;;
72935;SDS011;61085;48.804;9.228;2022-09-09T16:47:58;1.63;;;0.70;;
72935;SDS011;61085;48.804;9.228;2022-09-09T16:50:25;1.48;;;0.98;;
72935;SDS011;61085;48.804;9.228;2022-09-09T16:52:51;1.65;;;0.82;;
72935;SDS011;61085;48.804;9.228;2022-09-09T16:55:18;1.25;;;0.85;;
72935;SDS011;61085;48.804;9.228;2022-09-09T16:57:47;2.78;;;0.82;;
72935;SDS011;61085;48.804;9.228;2022-09-09T17:00:16;3.25;;;0.85;;
72935;SDS011;61085;48.804;9.228;2022-09-09T17:02:42;1.40;;;0.70;;
72935;SDS011;61085;48.804;9.228;2022-09-09T17:05:10;2.33;;;1.00;;
72935;SDS011;61085;48.804;9.228;2022-09-09T17:07:37;1.00;;;0.68;;
72935;SDS011;61085;48.804;9.228;2022-09-09T17:10:03;1.27;;;0.70;;
72935;SDS011;61085;48.804;9.228;2022-09-09T17:12:30;1.83;;;0.70;;
72935;SDS011;61085;48.804;9.228;2022-09-09T17:14:56;0.80;;;0.60;;
72935;SDS011;61085;48.804;9.228;2022-09-09T17:17:23;0.80;;;0.60;;
72935;SDS011;61085;48.804;9.228;2022-09-09T17:19:49;0.70;;;0.60;;
72935;SDS011;61085;48.804;9.228;2022-09-09T17:22:15;1.57;;;0.60;;
72935;SDS011;61085;48.804;9.228;2022-09-09T17:24:41;0.80;;;0.70;;
72935;SDS011;61085;48.804;9.228;2022-09-09T17:27:06;0.90;;;0.70;;
72935;SDS011;61085;48.804;9.228;2022-09-09T17:29:32;1.03;;;0.70;;